メインページ
METAR-TAF:

METAR-TAF

空港 :

サンフアン, プエルトリコ, アメリカ合衆国

ルイス・ムニョス・マリン国際空港

緯度: 18-27N, 経度: 066-00W, 海抜: 3m

現時点の気象観測

当レポートは24分前の22:56(UTC)に作成
東/北東の風 11kt
気温 28°C
湿度 74%
気圧 1017 hPa
視程: 16.1km
高度2200ftの雲は散在している
高度2900ftの雲は散在している
高度7500ftの雲は散在している

METAR: TJSJ 272256Z 07011KT 10SM SCT022 SCT029 SCT075 28/23 A3004 RMK AO2 SLP172 SHRA DSNT SW T02780233

時間: 19:20 (23:20 UTC)

予報

当レポートは5時間58分前の17:22(UTC)に作成
予報は27日の 18時(UTC)から 28日の 18時(UTC)まで有効
東/北東の風 12kt
視程: 10km
高度3000ftの雲は散在している, 積乱雲.
高度5000ftの雲は散在している
近辺で激しい雷雨
27日の 2000時(UTC)から
の風 15kt
視程: 10km
高度2500ftの雲は散在している
高度5000ftの雲は散在している
近辺でにわか雨
28日の 0200時(UTC)から
の風 6kt
視程: 10km
高度2500ftの雲は散在している
28日の 1400時(UTC)から
東/北東の風 15kt
視程: 10km
高度2500ftの雲はほとんどない
高度5000ftの雲は散在している

TAF: TJSJ 271722Z 2718/2818 06012KT P6SM VCTS SCT030CB SCT050 FM272000 08015KT P6SM VCSH SCT025 SCT050 FM280200 10006KT P6SM SCT025 FM281400 07015KT P6SM FEW025 SCT050

4,000以上の空港の気象観測と天気予報(METAR報とTAF報)

利用可能な観測所は地図上に黄色い丸と赤い丸で示す。

丸の上にカーソルを重ねると観測所名を参照できる。

次にクリックすると気象観測と天気予報を参照できる。

マップの切り替え:黒色「×」印の緑ボタンをクリックして拡大、「-」印の緑ボタンをクリックして縮小、緑色の三角印をクリックして隣りの地図に切り替え


METAR-TAF: